createdAt,value
2023-04-09T00:00:54.796Z,96.73
2023-04-09T00:01:54.806Z,96.73
2023-04-09T00:02:54.805Z,96.59
2023-04-09T00:03:54.887Z,96.84
2023-04-09T00:04:54.762Z,96.64
2023-04-09T00:05:54.735Z,96.22
2023-04-09T00:06:54.726Z,96.22
2023-04-09T00:07:54.680Z,96.39
2023-04-09T00:08:54.819Z,96.53
2023-04-09T00:09:54.664Z,96.69
2023-04-09T00:10:54.732Z,96.64
2023-04-09T00:11:54.648Z,96.43
2023-04-09T00:12:54.625Z,96.53
2023-04-09T00:13:54.630Z,96.08
2023-04-09T00:14:54.662Z,96.02
2023-04-09T00:15:54.650Z,95.97
2023-04-09T00:16:54.606Z,95.97
2023-04-09T00:17:54.647Z,95.97
2023-04-09T00:18:54.650Z,96.08
2023-04-09T00:19:54.580Z,95.97
2023-04-09T00:20:54.549Z,96.28
2023-04-09T00:21:54.550Z,96.18
2023-04-09T00:22:54.551Z,96.28
2023-04-09T00:23:54.519Z,95.87
2023-04-09T00:24:54.523Z,96.08
2023-04-09T00:25:54.497Z,95.46
2023-04-09T00:26:54.484Z,95.97
2023-04-09T00:27:54.478Z,95.87
2023-04-09T00:28:54.508Z,95.46
2023-04-09T00:29:54.441Z,95.46
2023-04-09T00:30:54.435Z,95.56
2023-04-09T00:31:54.497Z,96.08
2023-04-09T00:32:54.426Z,96.28
2023-04-09T00:33:54.424Z,96.48
2023-04-09T00:34:54.419Z,96.28
2023-04-09T00:35:54.427Z,95.87
2023-04-09T00:36:54.372Z,95.97
2023-04-09T00:37:54.381Z,95.97
2023-04-09T00:38:54.580Z,96.08
2023-04-09T00:39:54.332Z,96.18
2023-04-09T00:40:54.355Z,96.18
2023-04-09T00:41:54.320Z,96.28
2023-04-09T00:42:54.305Z,96.43
2023-04-09T00:43:54.312Z,96.39
2023-04-09T00:44:54.286Z,96.02
2023-04-09T00:45:54.361Z,95.97
2023-04-09T00:46:54.320Z,95.97
2023-04-09T00:47:54.302Z,96.33
2023-04-09T00:48:54.454Z,96.02
2023-04-09T00:49:54.217Z,96.28
2023-04-09T00:50:54.214Z,96.08
2023-04-09T00:51:54.220Z,95.71
2023-04-09T00:52:54.255Z,95.77
2023-04-09T00:53:54.176Z,96.39
2023-04-09T00:54:54.176Z,96.33
2023-04-09T00:55:54.169Z,95.92
2023-04-09T00:56:54.146Z,96.08
2023-04-09T00:57:54.193Z,96.02
2023-04-09T00:58:54.273Z,96.22
2023-04-09T00:59:54.105Z,96.53
2023-04-09T01:00:54.131Z,96.28
2023-04-09T01:01:54.206Z,96.22
2023-04-09T01:02:54.167Z,96.12
2023-04-09T01:03:54.151Z,96.28
2023-04-09T01:04:54.051Z,96.43
2023-04-09T01:05:54.044Z,96.43
2023-04-09T01:06:54.072Z,96.18
2023-04-09T01:07:54.045Z,96.18
2023-04-09T01:08:54.315Z,96.12
2023-04-09T01:09:54.045Z,96.28
2023-04-09T01:10:54.008Z,96.08
2023-04-09T01:11:54.002Z,96.28
2023-04-09T01:12:53.972Z,96.08
2023-04-09T01:13:53.965Z,96.22
2023-04-09T01:14:53.958Z,96.53
2023-04-09T01:15:53.968Z,96.43
2023-04-09T01:16:53.936Z,96.33
2023-04-09T01:17:53.989Z,96.12
2023-04-09T01:18:54.132Z,96.80
2023-04-09T01:19:53.892Z,96.59
2023-04-09T01:20:53.901Z,96.53
2023-04-09T01:21:53.892Z,96.53
2023-04-09T01:22:53.883Z,96.39
2023-04-09T01:23:53.861Z,96.69
2023-04-09T01:24:53.853Z,96.12
2023-04-09T01:25:53.878Z,96.39
2023-04-09T01:26:53.824Z,96.39
2023-04-09T01:27:54.461Z,96.48
2023-04-09T01:28:54.055Z,96.53
2023-04-09T01:29:53.774Z,96.53
2023-04-09T01:30:53.819Z,96.69
2023-04-09T01:31:53.751Z,96.39
2023-04-09T01:32:53.869Z,96.39
2023-04-09T01:33:53.812Z,96.80
2023-04-09T01:34:53.716Z,96.64
2023-04-09T01:35:53.746Z,96.84
2023-04-09T01:36:53.697Z,96.84
2023-04-09T01:37:53.728Z,97.05
2023-04-09T01:38:53.929Z,97.10
2023-04-09T01:39:53.689Z,97.20
2023-04-09T01:40:53.680Z,96.64
2023-04-09T01:41:53.665Z,96.59
2023-04-09T01:42:53.636Z,96.80
2023-04-09T01:43:53.645Z,96.90
2023-04-09T01:44:53.642Z,97.00
2023-04-09T01:45:53.655Z,96.94
2023-04-09T01:46:53.592Z,96.59
2023-04-09T01:47:53.653Z,96.84
2023-04-09T01:48:53.757Z,96.84
2023-04-09T01:49:53.559Z,96.53
2023-04-09T01:50:53.588Z,96.39
2023-04-09T01:51:53.574Z,96.69
2023-04-09T01:52:53.544Z,96.73
2023-04-09T01:53:53.522Z,96.69
2023-04-09T01:54:53.520Z,96.48
2023-04-09T01:55:53.596Z,96.84
2023-04-09T01:56:53.502Z,96.12
2023-04-09T01:57:53.489Z,96.27
2023-04-09T01:58:53.814Z,96.84
2023-04-09T01:59:53.446Z,97.36
2023-04-09T02:00:53.441Z,97.09
2023-04-09T02:01:53.549Z,96.89
2023-04-09T02:02:53.724Z,96.99
2023-04-09T02:03:53.529Z,96.84
2023-04-09T02:04:53.454Z,96.99
2023-04-09T02:05:53.382Z,97.30
2023-04-09T02:06:53.376Z,97.30
2023-04-09T02:07:53.354Z,96.78
2023-04-09T02:08:53.670Z,97.09
2023-04-09T02:09:53.390Z,97.19
2023-04-09T02:10:53.344Z,97.19
2023-04-09T02:11:53.339Z,96.94
2023-04-09T02:12:53.316Z,97.09
2023-04-09T02:13:53.321Z,96.99
2023-04-09T02:14:53.294Z,96.64
2023-04-09T02:15:53.324Z,96.78
2023-04-09T02:16:53.265Z,96.43
2023-04-09T02:17:53.269Z,96.43
2023-04-09T02:18:54.123Z,96.47
2023-04-09T02:19:53.235Z,96.89
2023-04-09T02:20:53.217Z,96.68
2023-04-09T02:21:53.229Z,96.37
2023-04-09T02:22:53.202Z,96.06
2023-04-09T02:23:53.225Z,96.06
2023-04-09T02:24:53.198Z,96.37
2023-04-09T02:25:53.183Z,96.37
2023-04-09T02:26:53.185Z,95.75
2023-04-09T02:27:53.169Z,95.55
2023-04-09T02:28:53.471Z,95.96
2023-04-09T02:29:53.127Z,95.55
2023-04-09T02:30:53.213Z,95.55
2023-04-09T02:31:53.152Z,95.34
2023-04-09T02:32:53.142Z,94.93
2023-04-09T02:33:53.112Z,94.73
2023-04-09T02:34:53.077Z,94.31
2023-04-09T02:35:53.068Z,94.42
2023-04-09T02:36:53.044Z,94.42
2023-04-09T02:37:53.055Z,93.39
2023-04-09T02:38:53.188Z,94.42
2023-04-09T02:39:53.033Z,94.11
2023-04-09T02:40:53.013Z,94.01
2023-04-09T02:41:53.029Z,92.82
2023-04-09T02:42:52.995Z,92.10
2023-04-09T02:43:53.020Z,91.95
2023-04-09T02:44:52.986Z,92.05
2023-04-09T02:45:53.002Z,91.23
2023-04-09T02:46:52.944Z,91.33
2023-04-09T02:47:52.954Z,91.02
2023-04-09T02:48:53.156Z,90.30
2023-04-09T02:49:52.927Z,89.38
2023-04-09T02:50:52.927Z,89.28
2023-04-09T02:51:52.948Z,88.96
2023-04-09T02:52:52.903Z,88.86
2023-04-09T02:53:52.865Z,89.79
2023-04-09T02:54:52.854Z,90.30
2023-04-09T02:55:52.847Z,90.20
2023-04-09T02:56:52.882Z,90.92
2023-04-09T02:57:52.818Z,91.02
2023-04-09T02:58:52.970Z,91.08
2023-04-09T02:59:52.828Z,90.41
2023-04-09T03:00:52.806Z,90.30
2023-04-09T03:01:52.896Z,89.58
2023-04-09T03:02:52.954Z,90.61
2023-04-09T03:03:52.859Z,90.30
2023-04-09T03:04:52.758Z,90.30
2023-04-09T03:05:52.728Z,90.61
2023-04-09T03:06:52.749Z,89.07
2023-04-09T03:07:52.732Z,88.96
2023-04-09T03:08:52.918Z,88.59
2023-04-09T03:09:52.711Z,88.86
2023-04-09T03:10:52.706Z,89.79
2023-04-09T03:11:52.674Z,89.38
2023-04-09T03:12:52.701Z,89.07
2023-04-09T03:13:52.692Z,89.38
2023-04-09T03:14:52.658Z,89.11
2023-04-09T03:15:52.668Z,89.69
2023-04-09T03:16:52.607Z,90.61
2023-04-09T03:17:52.671Z,90.34
2023-04-09T03:18:52.955Z,90.24
2023-04-09T03:19:52.575Z,90.34
2023-04-09T03:20:52.599Z,90.45
2023-04-09T03:21:52.571Z,90.49
2023-04-09T03:22:52.557Z,90.45
2023-04-09T03:23:52.570Z,90.45
2023-04-09T03:24:52.551Z,90.86
2023-04-09T03:25:52.540Z,90.96
2023-04-09T03:26:52.550Z,91.11
2023-04-09T03:27:52.490Z,90.90
2023-04-09T03:28:52.629Z,91.31
2023-04-09T03:29:52.479Z,91.42
2023-04-09T03:30:52.473Z,91.42
2023-04-09T03:31:52.498Z,91.52
2023-04-09T03:32:52.510Z,91.62
2023-04-09T03:33:52.461Z,91.93
2023-04-09T03:34:52.428Z,92.03
2023-04-09T03:35:52.439Z,91.83
2023-04-09T03:36:52.421Z,91.83
2023-04-09T03:37:52.412Z,92.44
2023-04-09T03:38:52.620Z,92.24
2023-04-09T03:39:52.364Z,92.34
2023-04-09T03:40:52.352Z,92.03
2023-04-09T03:41:52.339Z,92.44
2023-04-09T03:42:52.349Z,92.76
2023-04-09T03:43:52.383Z,93.16
2023-04-09T03:44:52.342Z,93.06
2023-04-09T03:45:52.304Z,92.86
2023-04-09T03:46:52.355Z,92.65
2023-04-09T03:47:52.361Z,93.37
2023-04-09T03:48:52.451Z,93.37
2023-04-09T03:49:52.279Z,94.09
2023-04-09T03:50:52.264Z,93.79
2023-04-09T03:51:52.258Z,93.93
2023-04-09T03:52:52.226Z,94.55
2023-04-09T03:53:52.259Z,94.40
2023-04-09T03:54:52.195Z,94.24
2023-04-09T03:55:52.207Z,94.45
2023-04-09T03:56:52.188Z,94.24
2023-04-09T03:57:52.168Z,94.24
2023-04-09T03:58:52.484Z,93.83
2023-04-09T03:59:52.159Z,93.73
2023-04-09T04:00:52.148Z,94.34
2023-04-09T04:01:52.201Z,94.55
2023-04-09T04:02:52.409Z,94.55
2023-04-09T04:03:52.312Z,94.76
2023-04-09T04:04:52.412Z,95.17
2023-04-09T04:05:52.118Z,94.85
2023-04-09T04:06:52.066Z,95.27
2023-04-09T04:07:52.102Z,95.27
2023-04-09T04:08:52.357Z,95.78
2023-04-09T04:09:52.060Z,95.99
2023-04-09T04:10:52.016Z,95.78
2023-04-09T04:11:52.044Z,95.68
2023-04-09T04:12:52.040Z,96.41
2023-04-09T04:13:52.012Z,96.09
2023-04-09T04:14:52.026Z,96.61
2023-04-09T04:15:51.990Z,96.41
2023-04-09T04:16:51.987Z,96.30
2023-04-09T04:17:52.035Z,97.02
2023-04-09T04:18:52.274Z,96.92
2023-04-09T04:19:51.981Z,96.92
2023-04-09T04:20:51.928Z,96.61
2023-04-09T04:21:51.924Z,96.56
2023-04-09T04:22:51.929Z,96.71
2023-04-09T04:23:51.908Z,96.77
2023-04-09T04:24:51.881Z,97.43
2023-04-09T04:25:51.946Z,97.13
2023-04-09T04:26:51.857Z,97.23
2023-04-09T04:27:51.850Z,97.13
2023-04-09T04:28:52.074Z,97.13
2023-04-09T04:29:51.843Z,97.02
2023-04-09T04:30:51.811Z,97.39
2023-04-09T04:31:51.876Z,97.43
2023-04-09T04:32:51.850Z,97.64
2023-04-09T04:33:51.797Z,97.80
2023-04-09T04:34:51.764Z,97.64
2023-04-09T04:35:51.826Z,97.64
2023-04-09T04:36:51.745Z,97.33
2023-04-09T04:37:51.765Z,97.43
2023-04-09T04:38:52.009Z,97.74
2023-04-09T04:39:51.746Z,97.85
2023-04-09T04:40:51.689Z,97.43
2023-04-09T04:41:51.682Z,97.74
2023-04-09T04:42:51.669Z,97.43
2023-04-09T04:43:51.706Z,97.02
2023-04-09T04:44:51.648Z,96.92
2023-04-09T04:45:53.535Z,97.33
2023-04-09T04:46:51.625Z,96.92
2023-04-09T04:47:51.664Z,97.02
2023-04-09T04:48:51.827Z,96.61
2023-04-09T04:49:51.614Z,96.61
2023-04-09T04:50:51.614Z,96.61
2023-04-09T04:51:51.592Z,96.61
2023-04-09T04:52:51.562Z,96.41
2023-04-09T04:53:51.557Z,96.61
2023-04-09T04:54:51.564Z,96.81
2023-04-09T04:55:51.564Z,96.71
2023-04-09T04:56:51.509Z,96.41
2023-04-09T04:57:51.547Z,96.20
2023-04-09T04:58:51.742Z,96.30
2023-04-09T04:59:51.499Z,96.20
2023-04-09T05:00:51.508Z,96.30
2023-04-09T05:01:51.528Z,95.27
2023-04-09T05:02:51.587Z,95.27
2023-04-09T05:03:51.558Z,94.96
2023-04-09T05:04:51.440Z,94.76
2023-04-09T05:05:51.450Z,95.02
2023-04-09T05:06:51.464Z,94.60
2023-04-09T05:07:51.439Z,94.45
2023-04-09T05:08:51.729Z,94.34
2023-04-09T05:09:51.376Z,93.79
2023-04-09T05:10:51.382Z,93.06
2023-04-09T05:11:51.376Z,93.06
2023-04-09T05:12:51.379Z,93.16
2023-04-09T05:13:51.361Z,91.93
2023-04-09T05:14:51.385Z,91.42
2023-04-09T05:15:51.341Z,91.11
2023-04-09T05:16:51.378Z,90.90
2023-04-09T05:17:51.346Z,91.00
2023-04-09T05:18:51.449Z,91.21
2023-04-09T05:19:51.301Z,91.21
2023-04-09T05:20:51.279Z,91.11
2023-04-09T05:21:51.252Z,91.17
2023-04-09T05:22:51.312Z,90.55
2023-04-09T05:23:51.254Z,90.45
2023-04-09T05:24:51.228Z,90.45
2023-04-09T05:25:51.253Z,90.66
2023-04-09T05:26:51.243Z,90.55
2023-04-09T05:27:51.183Z,90.45
2023-04-09T05:28:51.311Z,90.66
2023-04-09T05:29:51.175Z,90.09
2023-04-09T05:30:51.279Z,90.45
2023-04-09T05:31:51.155Z,89.83
2023-04-09T05:32:51.204Z,89.17
2023-04-09T05:33:51.152Z,89.31
2023-04-09T05:34:51.119Z,89.62
2023-04-09T05:35:51.123Z,89.89
2023-04-09T05:36:51.145Z,89.79
2023-04-09T05:37:51.109Z,89.38
2023-04-09T05:38:51.433Z,89.17
2023-04-09T05:39:51.087Z,89.38
2023-04-09T05:40:51.043Z,88.86
2023-04-09T05:41:51.366Z,88.56
2023-04-09T05:42:51.030Z,88.49
2023-04-09T05:43:51.111Z,88.45
2023-04-09T05:44:51.054Z,88.66
2023-04-09T05:45:51.048Z,88.29
2023-04-09T05:46:51.041Z,88.66
2023-04-09T05:47:51.071Z,88.18
2023-04-09T05:48:51.204Z,88.66
2023-04-09T05:49:50.946Z,88.56
2023-04-09T05:50:55.151Z,88.66
2023-04-09T05:51:51.955Z,88.45
2023-04-09T05:52:50.949Z,89.07
2023-04-09T05:53:51.132Z,89.48
2023-04-09T05:54:50.934Z,88.76
2023-04-09T05:55:50.922Z,88.35
2023-04-09T05:56:50.870Z,88.96
2023-04-09T05:57:50.863Z,89.17
2023-04-09T05:58:50.877Z,88.56
2023-04-09T05:59:50.861Z,88.56
2023-04-09T06:00:50.835Z,88.20
2023-04-09T06:01:50.851Z,88.00
2023-04-09T06:02:50.953Z,87.69
2023-04-09T06:03:51.316Z,88.51
2023-04-09T06:04:50.848Z,88.31
2023-04-09T06:05:50.778Z,88.51
2023-04-09T06:06:50.803Z,88.00
2023-04-09T06:07:50.767Z,87.49
2023-04-09T06:08:50.746Z,87.38
2023-04-09T06:09:50.730Z,87.69
2023-04-09T06:10:50.734Z,88.00
2023-04-09T06:11:50.727Z,87.49
2023-04-09T06:12:50.810Z,87.49
2023-04-09T06:13:50.934Z,87.38
2023-04-09T06:14:50.685Z,87.59
2023-04-09T06:15:50.746Z,87.24
2023-04-09T06:16:50.684Z,87.85
2023-04-09T06:17:50.714Z,87.55
2023-04-09T06:18:50.654Z,86.97
2023-04-09T06:19:50.622Z,87.65
2023-04-09T06:20:50.617Z,87.34
2023-04-09T06:21:50.605Z,86.46
2023-04-09T06:22:50.625Z,86.62
2023-04-09T06:23:50.988Z,86.72
2023-04-09T06:24:50.563Z,87.55
2023-04-09T06:25:50.584Z,87.55
2023-04-09T06:26:50.552Z,87.24
2023-04-09T06:27:50.560Z,87.10
2023-04-09T06:28:50.580Z,86.21
2023-04-09T06:29:50.530Z,86.11
2023-04-09T06:30:50.553Z,86.21
2023-04-09T06:31:50.495Z,86.21
2023-04-09T06:32:54.648Z,86.72
2023-04-09T06:33:50.976Z,86.07
2023-04-09T06:34:50.481Z,85.90
2023-04-09T06:35:50.521Z,86.07
2023-04-09T06:36:50.439Z,86.17
2023-04-09T06:37:50.435Z,85.97
2023-04-09T06:38:50.435Z,85.35
2023-04-09T06:40:00.428Z,85.76
2023-04-09T06:40:51.443Z,85.46
2023-04-09T06:41:50.434Z,85.21
2023-04-09T06:42:50.416Z,85.41
2023-04-09T06:43:50.638Z,85.31
2023-04-09T06:44:50.389Z,85.11
2023-04-09T06:45:50.348Z,85.11
2023-04-09T06:46:50.394Z,85.68
2023-04-09T06:47:50.366Z,85.27
2023-04-09T06:48:50.469Z,83.94
2023-04-09T06:49:50.297Z,83.83
2023-04-09T06:50:50.292Z,83.94
2023-04-09T06:51:50.300Z,84.14
2023-04-09T06:52:50.271Z,83.59
2023-04-09T06:53:50.505Z,84.20
2023-04-09T06:54:50.241Z,83.69
2023-04-09T06:55:50.230Z,83.55
2023-04-09T06:56:50.241Z,82.79
2023-04-09T06:57:50.207Z,82.24
2023-04-09T06:58:50.200Z,81.90
2023-04-09T06:59:50.236Z,81.04
2023-04-09T07:00:50.178Z,81.01
2023-04-09T07:01:52.055Z,81.99
2023-04-09T07:02:50.428Z,80.11
2023-04-09T07:03:50.443Z,78.54
2023-04-09T07:04:50.162Z,79.97
2023-04-09T07:05:50.129Z,79.73
2023-04-09T07:06:50.105Z,77.65
2023-04-09T07:07:50.102Z,74.38
2023-04-09T07:08:50.143Z,73.36
2023-04-09T07:09:50.105Z,74.55
2023-04-09T07:10:50.070Z,73.33
2023-04-09T07:11:50.054Z,72.65
2023-04-09T07:12:50.042Z,72.92
2023-04-09T07:13:50.041Z,73.64
2023-04-09T07:14:50.093Z,73.23
2023-04-09T07:15:50.071Z,73.23
2023-04-09T07:16:49.988Z,72.41
2023-04-09T07:17:50.042Z,72.41
2023-04-09T07:18:49.974Z,72.08
2023-04-09T07:19:50.127Z,72.31
2023-04-09T07:20:50.160Z,72.08
2023-04-09T07:21:49.964Z,71.91
2023-04-09T07:22:49.923Z,71.97
2023-04-09T07:23:49.994Z,71.26
2023-04-09T07:24:49.909Z,71.46
2023-04-09T07:25:49.904Z,70.75
2023-04-09T07:26:51.186Z,69.02
2023-04-09T07:27:49.879Z,69.22
2023-04-09T07:28:49.884Z,69.93
2023-04-09T07:29:49.866Z,70.21
2023-04-09T07:30:49.848Z,69.80
2023-04-09T07:31:49.927Z,68.88
2023-04-09T07:32:50.094Z,69.59
2023-04-09T07:33:49.857Z,69.36
2023-04-09T07:34:49.805Z,68.20
2023-04-09T07:35:49.805Z,69.49
2023-04-09T07:36:49.779Z,68.37
2023-04-09T07:37:49.790Z,69.36
2023-04-09T07:38:49.750Z,69.26
2023-04-09T07:39:49.749Z,68.92
2023-04-09T07:40:49.747Z,67.60
2023-04-09T07:41:49.737Z,67.60
2023-04-09T07:42:49.751Z,66.61
2023-04-09T07:43:49.751Z,67.02
2023-04-09T07:44:49.693Z,68.10
2023-04-09T07:45:49.687Z,67.49
2023-04-09T07:46:49.723Z,66.17
2023-04-09T07:47:49.840Z,67.83
2023-04-09T07:48:49.658Z,67.80
2023-04-09T07:49:49.687Z,67.22
2023-04-09T07:50:49.626Z,67.32
2023-04-09T07:51:49.618Z,67.43
2023-04-09T07:52:49.611Z,67.60
2023-04-09T07:53:49.590Z,67.90
2023-04-09T07:54:49.613Z,67.87
2023-04-09T07:55:49.631Z,67.77
2023-04-09T07:56:49.563Z,66.14
2023-04-09T07:57:49.580Z,67.53
2023-04-09T07:58:49.615Z,67.50
2023-04-09T07:59:49.524Z,66.35
2023-04-09T08:00:49.534Z,65.54
2023-04-09T08:01:49.573Z,65.36
2023-04-09T08:02:49.684Z,66.08
2023-04-09T08:03:49.687Z,65.44
2023-04-09T08:04:49.575Z,64.86
2023-04-09T08:05:49.466Z,64.76
2023-04-09T08:06:49.476Z,64.45
2023-04-09T08:07:49.456Z,65.94
2023-04-09T08:08:49.437Z,65.23
2023-04-09T08:09:49.476Z,65.09
2023-04-09T08:10:49.402Z,65.36
2023-04-09T08:11:49.414Z,63.74
2023-04-09T08:12:49.398Z,63.02
2023-04-09T08:13:49.393Z,64.25
2023-04-09T08:14:49.361Z,63.94
2023-04-09T08:15:49.383Z,64.52
2023-04-09T08:16:49.397Z,63.30
2023-04-09T08:17:49.395Z,62.46
2023-04-09T08:18:49.334Z,62.66
2023-04-09T08:19:49.339Z,62.16
2023-04-09T08:20:49.401Z,62.59
2023-04-09T08:21:49.287Z,63.71
2023-04-09T08:22:49.294Z,64.12
2023-04-09T08:23:49.290Z,65.00
2023-04-09T08:24:49.266Z,62.71
2023-04-09T08:25:49.261Z,63.11
2023-04-09T08:26:49.248Z,62.48
2023-04-09T08:27:49.283Z,62.57
2023-04-09T08:28:49.254Z,61.02
2023-04-09T08:29:49.202Z,59.23
2023-04-09T08:30:49.203Z,60.31
2023-04-09T08:31:49.200Z,60.62
2023-04-09T08:32:49.172Z,59.50
2023-04-09T08:33:49.230Z,61.74
2023-04-09T08:34:49.146Z,60.72
2023-04-09T08:35:49.183Z,58.49
2023-04-09T08:36:49.172Z,59.03
2023-04-09T08:37:49.121Z,60.93
2023-04-09T08:38:49.138Z,57.91
2023-04-09T08:39:49.108Z,59.33
2023-04-09T08:40:49.113Z,59.74
2023-04-09T08:41:49.080Z,59.41
2023-04-09T08:42:49.091Z,60.01
2023-04-09T08:43:57.583Z,59.81
2023-04-09T08:44:50.033Z,60.49
2023-04-09T08:45:49.123Z,59.68
2023-04-09T08:46:49.024Z,59.25
2023-04-09T08:47:49.064Z,58.64
2023-04-09T08:48:48.993Z,57.45
2023-04-09T08:49:49.009Z,60.97
2023-04-09T08:50:48.970Z,61.78
2023-04-09T08:51:49.050Z,58.81
2023-04-09T08:52:48.956Z,58.20
2023-04-09T08:53:48.935Z,58.78
2023-04-09T08:54:48.980Z,59.42
2023-04-09T08:55:48.965Z,57.57
2023-04-09T08:56:48.909Z,56.82
2023-04-09T08:57:48.980Z,59.34
2023-04-09T08:58:48.901Z,59.05
2023-04-09T08:59:48.893Z,59.05
2023-04-09T09:00:48.887Z,58.00
2023-04-09T09:01:48.878Z,57.83
2023-04-09T09:02:48.974Z,59.25
2023-04-09T09:03:48.899Z,61.35
2023-04-09T09:04:48.850Z,60.71
2023-04-09T09:05:48.836Z,58.18
2023-04-09T09:06:48.795Z,57.98
2023-04-09T09:07:48.800Z,57.50
2023-04-09T09:08:48.771Z,57.80
2023-04-09T09:09:48.772Z,59.32
2023-04-09T09:10:48.791Z,57.20
2023-04-09T09:11:48.776Z,57.22
2023-04-09T09:12:48.738Z,58.97
2023-04-09T09:13:48.711Z,58.49
2023-04-09T09:14:48.707Z,58.49
2023-04-09T09:15:48.702Z,58.39
2023-04-09T09:16:48.743Z,59.61
2023-04-09T09:17:48.725Z,61.40
2023-04-09T09:18:48.656Z,59.38
2023-04-09T09:19:48.659Z,59.99
2023-04-09T09:20:48.636Z,61.27
2023-04-09T09:21:48.647Z,59.27
2023-04-09T09:22:49.179Z,58.84
2023-04-09T09:23:49.635Z,59.48
2023-04-09T09:24:50.151Z,59.41
2023-04-09T09:25:48.589Z,60.19
2023-04-09T09:26:48.567Z,59.48
2023-04-09T09:27:48.564Z,60.86
2023-04-09T09:28:48.552Z,60.77
2023-04-09T09:29:48.578Z,59.92
2023-04-09T09:30:49.425Z,60.33
2023-04-09T09:31:48.514Z,59.80
2023-04-09T09:32:48.554Z,58.38
2023-04-09T09:33:48.507Z,57.67
2023-04-09T09:34:48.849Z,57.60
2023-04-09T09:35:48.583Z,59.72
2023-04-09T09:36:48.554Z,58.00
2023-04-09T09:37:48.444Z,58.00
2023-04-09T09:38:48.440Z,57.62
2023-04-09T09:39:48.443Z,59.45
2023-04-09T09:40:48.441Z,57.96
2023-04-09T09:41:48.457Z,57.75
2023-04-09T09:42:48.401Z,59.14
2023-04-09T09:43:48.388Z,58.03
2023-04-09T09:44:48.388Z,57.88
2023-04-09T09:45:48.403Z,59.05
2023-04-09T09:46:48.355Z,59.86
2023-04-09T09:47:48.421Z,61.05
2023-04-09T09:48:48.354Z,61.83
2023-04-09T09:49:48.315Z,59.38
2023-04-09T09:50:48.309Z,59.95
2023-04-09T09:51:48.291Z,60.74
2023-04-09T09:52:48.291Z,60.03
2023-04-09T09:53:49.666Z,59.27
2023-04-09T09:54:48.299Z,60.39
2023-04-09T09:55:48.274Z,59.20
2023-04-09T09:56:48.249Z,59.30
2023-04-09T09:57:48.231Z,57.07
2023-04-09T09:58:48.228Z,59.00
2023-04-09T09:59:48.240Z,57.28
2023-04-09T10:00:48.234Z,58.42
2023-04-09T10:01:48.297Z,59.50
2023-04-09T10:02:48.263Z,60.82
2023-04-09T10:03:48.165Z,59.50
2023-04-09T10:04:48.199Z,59.41
2023-04-09T10:05:48.178Z,61.27
2023-04-09T10:06:48.160Z,61.14
2023-04-09T10:07:48.144Z,57.40
2023-04-09T10:08:48.119Z,59.22
2023-04-09T10:09:48.095Z,57.70
2023-04-09T10:10:48.094Z,57.37
2023-04-09T10:11:48.164Z,59.27
2023-04-09T10:12:48.100Z,59.33
2023-04-09T10:13:48.416Z,60.62
2023-04-09T10:14:48.046Z,61.02
2023-04-09T10:15:48.243Z,58.90
2023-04-09T10:16:48.049Z,60.08
2023-04-09T10:17:48.058Z,61.07
2023-04-09T10:18:48.030Z,59.81
2023-04-09T10:19:48.011Z,60.01
2023-04-09T10:20:47.974Z,59.27
2023-04-09T10:21:48.012Z,57.71
2023-04-09T10:22:47.981Z,59.30
2023-04-09T10:23:47.939Z,58.67
2023-04-09T10:24:47.930Z,57.62
2023-04-09T10:25:47.923Z,57.93
2023-04-09T10:26:47.921Z,60.06
2023-04-09T10:27:47.924Z,58.84
2023-04-09T10:28:47.931Z,59.12
2023-04-09T10:29:47.893Z,57.78
2023-04-09T10:30:47.902Z,59.67
2023-04-09T10:31:47.871Z,58.05
2023-04-09T10:32:47.863Z,56.30
2023-04-09T10:33:47.848Z,55.69
2023-04-09T10:34:47.866Z,55.69
2023-04-09T10:35:47.844Z,55.47
2023-04-09T10:36:47.808Z,55.40
2023-04-09T10:37:47.790Z,55.42
2023-04-09T10:38:47.775Z,55.85
2023-04-09T10:39:47.773Z,56.26
2023-04-09T10:40:47.810Z,55.98
2023-04-09T10:41:47.813Z,56.69
2023-04-09T10:42:47.740Z,56.01
2023-04-09T10:43:47.799Z,57.50
2023-04-09T10:44:47.716Z,57.80
2023-04-09T10:45:47.733Z,57.47
2023-04-09T10:46:47.776Z,56.63
2023-04-09T10:47:47.729Z,57.29
2023-04-09T10:48:47.697Z,55.57
2023-04-09T10:49:47.662Z,56.48
2023-04-09T10:50:47.707Z,53.78
2023-04-09T10:51:47.638Z,54.00
2023-04-09T10:52:47.688Z,55.19
2023-04-09T10:53:47.608Z,55.83
2023-04-09T10:54:47.610Z,56.05
2023-04-09T10:55:47.653Z,57.98
2023-04-09T10:56:47.577Z,58.13
2023-04-09T10:57:47.594Z,55.90
2023-04-09T10:58:47.589Z,56.28
2023-04-09T10:59:47.602Z,57.40
2023-04-09T11:00:47.566Z,56.15
2023-04-09T11:01:47.600Z,56.53
2023-04-09T11:02:47.707Z,55.22
2023-04-09T11:03:47.560Z,56.36
2023-04-09T11:04:47.537Z,55.44
2023-04-09T11:05:47.569Z,57.44
2023-04-09T11:06:47.492Z,55.90
2023-04-09T11:07:47.474Z,55.07
2023-04-09T11:08:47.462Z,55.87
2023-04-09T11:09:47.443Z,55.73
2023-04-09T11:10:49.037Z,55.77
2023-04-09T11:11:47.427Z,54.99
2023-04-09T11:12:47.421Z,56.01
2023-04-09T11:13:47.409Z,55.43
2023-04-09T11:14:47.407Z,57.22
2023-04-09T11:15:47.422Z,56.36
2023-04-09T11:16:47.423Z,57.85
2023-04-09T11:17:47.385Z,56.81
2023-04-09T11:18:47.360Z,56.38
2023-04-09T11:19:47.328Z,55.85
2023-04-09T11:20:47.349Z,56.12
2023-04-09T11:21:47.334Z,54.51
2023-04-09T11:22:47.368Z,54.00
2023-04-09T11:23:47.309Z,54.74
2023-04-09T11:24:47.320Z,54.96
2023-04-09T11:25:47.281Z,55.49
2023-04-09T11:26:47.286Z,56.63
2023-04-09T11:27:47.285Z,56.13
2023-04-09T11:28:47.290Z,55.44
2023-04-09T11:29:47.260Z,56.46
2023-04-09T11:30:47.231Z,57.27
2023-04-09T11:31:47.247Z,55.73
2023-04-09T11:32:47.246Z,56.84
2023-04-09T11:33:47.251Z,55.40
2023-04-09T11:34:47.192Z,56.58
2023-04-09T11:35:47.189Z,56.07
2023-04-09T11:36:47.143Z,55.49
2023-04-09T11:37:47.148Z,56.27
2023-04-09T11:38:47.129Z,55.85
2023-04-09T11:39:47.161Z,55.70
2023-04-09T11:40:47.106Z,56.51
2023-04-09T11:41:47.100Z,56.51
2023-04-09T11:42:47.079Z,56.92
2023-04-09T11:43:47.069Z,56.61
2023-04-09T11:44:47.075Z,55.60
2023-04-09T11:45:47.103Z,57.50
2023-04-09T11:46:47.082Z,56.56
2023-04-09T11:47:47.135Z,56.36
2023-04-09T11:48:47.028Z,55.24
2023-04-09T11:49:47.004Z,55.75
2023-04-09T11:50:46.992Z,55.55
2023-04-09T11:51:47.008Z,55.85
2023-04-09T11:52:46.970Z,55.82
2023-04-09T11:53:46.966Z,55.40
2023-04-09T11:54:46.970Z,54.89
2023-04-09T11:55:46.956Z,55.47
2023-04-09T11:56:46.928Z,53.96
2023-04-09T11:57:46.931Z,53.17
2023-04-09T11:58:46.904Z,53.30
2023-04-09T11:59:46.923Z,54.61
2023-04-09T12:00:46.905Z,53.63
2023-04-09T12:01:46.930Z,54.13
2023-04-09T12:02:47.106Z,54.23
2023-04-09T12:03:47.000Z,54.16
2023-04-09T12:04:47.026Z,54.08
2023-04-09T12:05:50.182Z,55.40
2023-04-09T12:06:46.839Z,56.13
2023-04-09T12:07:55.618Z,55.43
2023-04-09T12:08:47.795Z,57.04
2023-04-09T12:09:46.809Z,56.84
2023-04-09T12:10:46.792Z,56.54
2023-04-09T12:11:46.766Z,55.73
2023-04-09T12:12:46.769Z,56.05
2023-04-09T12:13:46.748Z,55.76
2023-04-09T12:14:46.735Z,56.46
2023-04-09T12:15:46.745Z,57.30
2023-04-09T12:16:46.759Z,57.07
2023-04-09T12:17:46.710Z,57.48
2023-04-09T12:18:46.719Z,56.97
2023-04-09T12:19:46.696Z,56.54
2023-04-09T12:20:46.674Z,56.64
2023-04-09T12:21:46.682Z,56.03
2023-04-09T12:22:46.642Z,56.23
2023-04-09T12:23:46.641Z,56.21
2023-04-09T12:24:46.636Z,54.76
2023-04-09T12:25:46.620Z,54.86
2023-04-09T12:26:46.607Z,55.65
2023-04-09T12:27:46.625Z,53.22
2023-04-09T12:28:46.605Z,54.53
2023-04-09T12:29:46.572Z,53.72
2023-04-09T12:30:46.571Z,54.13
2023-04-09T12:31:46.600Z,54.56
2023-04-09T12:32:46.641Z,56.79
2023-04-09T12:33:46.548Z,56.18
2023-04-09T12:34:46.532Z,56.18
2023-04-09T12:35:46.635Z,56.18
2023-04-09T12:36:46.486Z,56.71
2023-04-09T12:37:46.480Z,56.01
2023-04-09T12:38:46.479Z,57.62
2023-04-09T12:39:46.494Z,56.82
2023-04-09T12:40:46.442Z,55.30
2023-04-09T12:41:46.494Z,55.50
2023-04-09T12:42:46.451Z,56.21
2023-04-09T12:43:46.413Z,57.45
2023-04-09T12:44:46.424Z,57.15
2023-04-09T12:45:46.446Z,56.23
2023-04-09T12:46:46.382Z,56.10
2023-04-09T12:47:46.420Z,56.74
2023-04-09T12:48:46.381Z,55.63
2023-04-09T12:49:46.359Z,56.03
2023-04-09T12:50:46.350Z,56.05
2023-04-09T12:51:46.357Z,55.73
2023-04-09T12:52:46.340Z,55.83